sensor_id;sensor_type;location;lat;lon;timestamp;P1;durP1;ratioP1;P2;durP2;ratioP2
20067;SDS011;10194;50.824;7.134;2024-01-30T00:02:06;54.70;;;46.47;;
20067;SDS011;10194;50.824;7.134;2024-01-30T00:04:32;55.93;;;47.10;;
20067;SDS011;10194;50.824;7.134;2024-01-30T00:06:58;56.73;;;47.73;;
20067;SDS011;10194;50.824;7.134;2024-01-30T00:09:24;54.33;;;46.53;;
20067;SDS011;10194;50.824;7.134;2024-01-30T00:11:49;53.40;;;46.00;;
20067;SDS011;10194;50.824;7.134;2024-01-30T00:14:16;53.60;;;46.20;;
20067;SDS011;10194;50.824;7.134;2024-01-30T00:16:42;56.77;;;47.60;;
20067;SDS011;10194;50.824;7.134;2024-01-30T00:19:07;53.70;;;46.00;;
20067;SDS011;10194;50.824;7.134;2024-01-30T00:21:33;55.03;;;46.83;;
20067;SDS011;10194;50.824;7.134;2024-01-30T00:23:59;53.60;;;46.10;;
20067;SDS011;10194;50.824;7.134;2024-01-30T00:26:25;53.73;;;46.00;;
20067;SDS011;10194;50.824;7.134;2024-01-30T00:28:51;55.17;;;47.00;;
20067;SDS011;10194;50.824;7.134;2024-01-30T00:31:16;55.23;;;46.93;;
20067;SDS011;10194;50.824;7.134;2024-01-30T00:33:42;53.33;;;45.83;;
20067;SDS011;10194;50.824;7.134;2024-01-30T00:36:09;53.60;;;46.10;;
20067;SDS011;10194;50.824;7.134;2024-01-30T00:38:35;54.20;;;46.40;;
20067;SDS011;10194;50.824;7.134;2024-01-30T00:41:02;53.60;;;45.93;;
20067;SDS011;10194;50.824;7.134;2024-01-30T00:43:28;53.50;;;46.00;;
20067;SDS011;10194;50.824;7.134;2024-01-30T00:45:54;52.93;;;45.50;;
20067;SDS011;10194;50.824;7.134;2024-01-30T00:48:20;54.30;;;46.33;;
20067;SDS011;10194;50.824;7.134;2024-01-30T00:50:46;54.67;;;46.57;;
20067;SDS011;10194;50.824;7.134;2024-01-30T00:53:12;53.37;;;45.93;;
20067;SDS011;10194;50.824;7.134;2024-01-30T00:55:38;56.33;;;46.97;;
20067;SDS011;10194;50.824;7.134;2024-01-30T00:58:03;53.87;;;46.13;;
20067;SDS011;10194;50.824;7.134;2024-01-30T01:00:30;53.37;;;45.80;;
20067;SDS011;10194;50.824;7.134;2024-01-30T01:02:57;53.20;;;45.87;;
20067;SDS011;10194;50.824;7.134;2024-01-30T01:05:24;53.73;;;46.17;;
20067;SDS011;10194;50.824;7.134;2024-01-30T01:07:50;53.20;;;45.80;;
20067;SDS011;10194;50.824;7.134;2024-01-30T01:10:16;53.73;;;46.13;;
20067;SDS011;10194;50.824;7.134;2024-01-30T01:12:43;53.40;;;45.93;;
20067;SDS011;10194;50.824;7.134;2024-01-30T01:15:09;53.67;;;46.10;;
20067;SDS011;10194;50.824;7.134;2024-01-30T01:17:36;53.33;;;45.90;;
20067;SDS011;10194;50.824;7.134;2024-01-30T01:20:03;53.10;;;45.67;;
20067;SDS011;10194;50.824;7.134;2024-01-30T01:22:33;53.47;;;45.90;;
20067;SDS011;10194;50.824;7.134;2024-01-30T01:25:00;55.17;;;46.80;;
20067;SDS011;10194;50.824;7.134;2024-01-30T01:27:26;53.27;;;45.87;;
20067;SDS011;10194;50.824;7.134;2024-01-30T01:29:52;53.30;;;45.97;;
20067;SDS011;10194;50.824;7.134;2024-01-30T01:32:18;53.17;;;45.80;;
20067;SDS011;10194;50.824;7.134;2024-01-30T01:34:44;59.90;;;48.90;;
20067;SDS011;10194;50.824;7.134;2024-01-30T01:37:10;53.90;;;46.33;;
20067;SDS011;10194;50.824;7.134;2024-01-30T01:39:36;54.20;;;46.53;;
20067;SDS011;10194;50.824;7.134;2024-01-30T01:42:02;54.80;;;46.93;;
20067;SDS011;10194;50.824;7.134;2024-01-30T01:44:28;54.00;;;46.33;;
20067;SDS011;10194;50.824;7.134;2024-01-30T01:46:54;53.93;;;46.37;;
20067;SDS011;10194;50.824;7.134;2024-01-30T01:49:20;53.97;;;46.47;;
20067;SDS011;10194;50.824;7.134;2024-01-30T01:51:49;54.07;;;46.57;;
20067;SDS011;10194;50.824;7.134;2024-01-30T01:54:17;53.87;;;46.90;;
20067;SDS011;10194;50.824;7.134;2024-01-30T01:56:44;55.17;;;48.10;;
20067;SDS011;10194;50.824;7.134;2024-01-30T01:59:10;56.87;;;47.77;;
20067;SDS011;10194;50.824;7.134;2024-01-30T02:01:36;55.30;;;47.17;;
20067;SDS011;10194;50.824;7.134;2024-01-30T02:04:02;53.83;;;46.30;;
20067;SDS011;10194;50.824;7.134;2024-01-30T02:06:28;53.80;;;46.30;;
20067;SDS011;10194;50.824;7.134;2024-01-30T02:08:54;54.10;;;46.37;;
20067;SDS011;10194;50.824;7.134;2024-01-30T02:11:21;56.67;;;47.67;;
20067;SDS011;10194;50.824;7.134;2024-01-30T02:13:48;54.40;;;46.63;;
20067;SDS011;10194;50.824;7.134;2024-01-30T02:16:15;53.57;;;46.20;;
20067;SDS011;10194;50.824;7.134;2024-01-30T02:18:42;53.87;;;46.57;;
20067;SDS011;10194;50.824;7.134;2024-01-30T02:21:12;53.43;;;46.20;;
20067;SDS011;10194;50.824;7.134;2024-01-30T02:23:41;53.50;;;46.27;;
20067;SDS011;10194;50.824;7.134;2024-01-30T02:26:10;53.90;;;46.30;;
20067;SDS011;10194;50.824;7.134;2024-01-30T02:28:37;54.53;;;46.77;;
20067;SDS011;10194;50.824;7.134;2024-01-30T02:31:03;53.37;;;46.10;;
20067;SDS011;10194;50.824;7.134;2024-01-30T02:33:29;54.20;;;46.53;;
20067;SDS011;10194;50.824;7.134;2024-01-30T02:35:55;53.60;;;46.13;;
20067;SDS011;10194;50.824;7.134;2024-01-30T02:38:21;54.07;;;46.37;;
20067;SDS011;10194;50.824;7.134;2024-01-30T02:40:48;54.27;;;46.43;;
20067;SDS011;10194;50.824;7.134;2024-01-30T02:43:15;54.27;;;46.60;;
20067;SDS011;10194;50.824;7.134;2024-01-30T02:45:41;59.07;;;48.20;;
20067;SDS011;10194;50.824;7.134;2024-01-30T02:48:08;54.03;;;46.43;;
20067;SDS011;10194;50.824;7.134;2024-01-30T02:50:33;54.73;;;46.77;;
20067;SDS011;10194;50.824;7.134;2024-01-30T02:52:59;54.53;;;46.50;;
20067;SDS011;10194;50.824;7.134;2024-01-30T02:55:25;55.23;;;47.00;;
20067;SDS011;10194;50.824;7.134;2024-01-30T02:57:51;53.80;;;46.27;;
20067;SDS011;10194;50.824;7.134;2024-01-30T03:00:17;56.77;;;47.30;;
20067;SDS011;10194;50.824;7.134;2024-01-30T03:02:45;53.70;;;45.90;;
20067;SDS011;10194;50.824;7.134;2024-01-30T03:05:10;54.17;;;46.50;;
20067;SDS011;10194;50.824;7.134;2024-01-30T03:07:36;54.83;;;47.00;;
20067;SDS011;10194;50.824;7.134;2024-01-30T03:10:03;53.53;;;46.27;;
20067;SDS011;10194;50.824;7.134;2024-01-30T03:12:31;53.70;;;46.23;;
20067;SDS011;10194;50.824;7.134;2024-01-30T03:14:57;54.17;;;46.43;;
20067;SDS011;10194;50.824;7.134;2024-01-30T03:17:23;53.50;;;46.13;;
20067;SDS011;10194;50.824;7.134;2024-01-30T03:19:49;54.53;;;46.67;;
20067;SDS011;10194;50.824;7.134;2024-01-30T03:22:15;54.67;;;46.73;;
20067;SDS011;10194;50.824;7.134;2024-01-30T03:24:41;56.80;;;47.80;;
20067;SDS011;10194;50.824;7.134;2024-01-30T03:27:07;54.03;;;46.43;;
20067;SDS011;10194;50.824;7.134;2024-01-30T03:29:34;57.23;;;48.10;;
20067;SDS011;10194;50.824;7.134;2024-01-30T03:32:00;54.23;;;46.37;;
20067;SDS011;10194;50.824;7.134;2024-01-30T03:34:25;53.80;;;46.20;;
20067;SDS011;10194;50.824;7.134;2024-01-30T03:36:51;53.23;;;45.97;;
20067;SDS011;10194;50.824;7.134;2024-01-30T03:39:17;53.50;;;46.00;;
20067;SDS011;10194;50.824;7.134;2024-01-30T03:41:42;53.87;;;46.23;;
20067;SDS011;10194;50.824;7.134;2024-01-30T03:44:09;56.57;;;47.30;;
20067;SDS011;10194;50.824;7.134;2024-01-30T03:46:35;55.80;;;47.13;;
20067;SDS011;10194;50.824;7.134;2024-01-30T03:49:01;54.17;;;46.30;;
20067;SDS011;10194;50.824;7.134;2024-01-30T03:51:27;53.67;;;46.30;;
20067;SDS011;10194;50.824;7.134;2024-01-30T03:53:53;53.33;;;46.10;;
20067;SDS011;10194;50.824;7.134;2024-01-30T03:56:18;53.50;;;46.20;;
20067;SDS011;10194;50.824;7.134;2024-01-30T03:58:44;53.63;;;46.27;;
20067;SDS011;10194;50.824;7.134;2024-01-30T04:01:13;53.20;;;46.00;;
20067;SDS011;10194;50.824;7.134;2024-01-30T04:03:40;55.07;;;46.87;;
20067;SDS011;10194;50.824;7.134;2024-01-30T04:06:06;53.10;;;45.87;;
20067;SDS011;10194;50.824;7.134;2024-01-30T04:08:33;53.13;;;45.93;;
20067;SDS011;10194;50.824;7.134;2024-01-30T04:10:59;53.40;;;46.00;;
20067;SDS011;10194;50.824;7.134;2024-01-30T04:13:32;53.30;;;46.00;;
20067;SDS011;10194;50.824;7.134;2024-01-30T04:16:01;53.60;;;46.20;;
20067;SDS011;10194;50.824;7.134;2024-01-30T04:18:28;54.57;;;46.50;;
20067;SDS011;10194;50.824;7.134;2024-01-30T04:20:54;53.50;;;46.00;;
20067;SDS011;10194;50.824;7.134;2024-01-30T04:23:20;55.43;;;47.03;;
20067;SDS011;10194;50.824;7.134;2024-01-30T04:25:46;55.40;;;49.20;;
20067;SDS011;10194;50.824;7.134;2024-01-30T04:28:12;54.37;;;46.50;;
20067;SDS011;10194;50.824;7.134;2024-01-30T04:30:38;53.40;;;45.97;;
20067;SDS011;10194;50.824;7.134;2024-01-30T04:33:04;53.50;;;46.17;;
20067;SDS011;10194;50.824;7.134;2024-01-30T04:35:30;53.03;;;45.70;;
20067;SDS011;10194;50.824;7.134;2024-01-30T04:37:56;53.07;;;45.90;;
20067;SDS011;10194;50.824;7.134;2024-01-30T04:40:21;53.30;;;46.10;;
20067;SDS011;10194;50.824;7.134;2024-01-30T04:42:47;53.80;;;46.17;;
20067;SDS011;10194;50.824;7.134;2024-01-30T04:45:13;54.50;;;46.70;;
20067;SDS011;10194;50.824;7.134;2024-01-30T04:47:39;53.37;;;46.30;;
20067;SDS011;10194;50.824;7.134;2024-01-30T04:50:08;54.17;;;46.47;;
20067;SDS011;10194;50.824;7.134;2024-01-30T04:52:34;53.00;;;45.80;;
20067;SDS011;10194;50.824;7.134;2024-01-30T04:55:00;53.30;;;46.00;;
20067;SDS011;10194;50.824;7.134;2024-01-30T04:57:26;53.07;;;45.97;;
20067;SDS011;10194;50.824;7.134;2024-01-30T04:59:52;56.07;;;47.67;;
20067;SDS011;10194;50.824;7.134;2024-01-30T05:02:18;56.20;;;47.10;;
20067;SDS011;10194;50.824;7.134;2024-01-30T05:04:44;53.43;;;46.07;;
20067;SDS011;10194;50.824;7.134;2024-01-30T05:07:10;53.00;;;46.03;;
20067;SDS011;10194;50.824;7.134;2024-01-30T05:09:35;53.10;;;45.90;;
20067;SDS011;10194;50.824;7.134;2024-01-30T05:12:02;54.10;;;46.47;;
20067;SDS011;10194;50.824;7.134;2024-01-30T05:14:28;53.10;;;46.07;;
20067;SDS011;10194;50.824;7.134;2024-01-30T05:16:53;53.67;;;46.27;;
20067;SDS011;10194;50.824;7.134;2024-01-30T05:19:19;53.30;;;46.10;;
20067;SDS011;10194;50.824;7.134;2024-01-30T05:21:46;53.60;;;46.20;;
20067;SDS011;10194;50.824;7.134;2024-01-30T05:24:12;52.97;;;45.97;;
20067;SDS011;10194;50.824;7.134;2024-01-30T05:26:38;53.10;;;45.97;;
20067;SDS011;10194;50.824;7.134;2024-01-30T05:29:04;53.83;;;46.37;;
20067;SDS011;10194;50.824;7.134;2024-01-30T05:31:31;53.20;;;46.07;;
20067;SDS011;10194;50.824;7.134;2024-01-30T05:33:57;55.30;;;46.93;;
20067;SDS011;10194;50.824;7.134;2024-01-30T05:36:23;52.90;;;45.90;;
20067;SDS011;10194;50.824;7.134;2024-01-30T05:38:48;53.03;;;46.03;;
20067;SDS011;10194;50.824;7.134;2024-01-30T05:41:14;53.57;;;46.40;;
20067;SDS011;10194;50.824;7.134;2024-01-30T05:43:44;53.23;;;46.30;;
20067;SDS011;10194;50.824;7.134;2024-01-30T05:46:09;54.73;;;46.87;;
20067;SDS011;10194;50.824;7.134;2024-01-30T05:48:35;53.43;;;46.30;;
20067;SDS011;10194;50.824;7.134;2024-01-30T05:51:01;52.60;;;45.73;;
20067;SDS011;10194;50.824;7.134;2024-01-30T05:53:28;53.50;;;46.10;;
20067;SDS011;10194;50.824;7.134;2024-01-30T05:55:54;52.97;;;45.83;;
20067;SDS011;10194;50.824;7.134;2024-01-30T05:58:20;52.77;;;45.73;;
20067;SDS011;10194;50.824;7.134;2024-01-30T06:00:46;54.10;;;46.43;;
20067;SDS011;10194;50.824;7.134;2024-01-30T06:03:12;53.47;;;46.37;;
20067;SDS011;10194;50.824;7.134;2024-01-30T06:05:38;58.43;;;48.03;;
20067;SDS011;10194;50.824;7.134;2024-01-30T06:08:04;53.43;;;46.40;;
20067;SDS011;10194;50.824;7.134;2024-01-30T06:10:30;56.97;;;47.67;;
20067;SDS011;10194;50.824;7.134;2024-01-30T06:12:56;53.37;;;46.50;;
20067;SDS011;10194;50.824;7.134;2024-01-30T06:15:21;53.73;;;46.80;;
20067;SDS011;10194;50.824;7.134;2024-01-30T06:17:47;53.33;;;46.27;;
20067;SDS011;10194;50.824;7.134;2024-01-30T06:20:13;53.23;;;46.43;;
20067;SDS011;10194;50.824;7.134;2024-01-30T06:22:39;53.23;;;46.50;;
20067;SDS011;10194;50.824;7.134;2024-01-30T06:25:05;53.37;;;46.50;;
20067;SDS011;10194;50.824;7.134;2024-01-30T06:27:31;53.40;;;46.67;;
20067;SDS011;10194;50.824;7.134;2024-01-30T06:29:56;55.93;;;48.10;;
20067;SDS011;10194;50.824;7.134;2024-01-30T06:32:22;55.40;;;47.77;;
20067;SDS011;10194;50.824;7.134;2024-01-30T06:34:48;54.03;;;47.00;;
20067;SDS011;10194;50.824;7.134;2024-01-30T06:37:14;59.37;;;48.77;;
20067;SDS011;10194;50.824;7.134;2024-01-30T06:39:39;53.37;;;46.63;;
20067;SDS011;10194;50.824;7.134;2024-01-30T06:42:05;53.47;;;46.73;;
20067;SDS011;10194;50.824;7.134;2024-01-30T06:44:31;53.57;;;47.07;;
20067;SDS011;10194;50.824;7.134;2024-01-30T06:46:57;53.27;;;46.90;;
20067;SDS011;10194;50.824;7.134;2024-01-30T06:49:22;54.90;;;48.67;;
20067;SDS011;10194;50.824;7.134;2024-01-30T06:51:48;56.87;;;49.47;;
20067;SDS011;10194;50.824;7.134;2024-01-30T06:54:14;53.67;;;47.70;;
20067;SDS011;10194;50.824;7.134;2024-01-30T06:56:39;53.87;;;47.70;;
20067;SDS011;10194;50.824;7.134;2024-01-30T06:59:05;56.87;;;49.63;;
20067;SDS011;10194;50.824;7.134;2024-01-30T07:01:31;54.00;;;47.93;;
20067;SDS011;10194;50.824;7.134;2024-01-30T07:03:57;54.20;;;48.17;;
20067;SDS011;10194;50.824;7.134;2024-01-30T07:06:23;54.10;;;48.07;;
20067;SDS011;10194;50.824;7.134;2024-01-30T07:08:49;55.30;;;47.90;;
20067;SDS011;10194;50.824;7.134;2024-01-30T07:11:19;53.40;;;47.10;;
20067;SDS011;10194;50.824;7.134;2024-01-30T07:13:47;54.20;;;47.50;;
20067;SDS011;10194;50.824;7.134;2024-01-30T07:16:13;53.77;;;47.10;;
20067;SDS011;10194;50.824;7.134;2024-01-30T07:18:40;53.37;;;46.80;;
20067;SDS011;10194;50.824;7.134;2024-01-30T07:21:05;54.27;;;47.43;;
20067;SDS011;10194;50.824;7.134;2024-01-30T07:23:31;54.73;;;48.03;;
20067;SDS011;10194;50.824;7.134;2024-01-30T07:25:59;60.77;;;54.33;;
20067;SDS011;10194;50.824;7.134;2024-01-30T07:28:25;57.57;;;49.27;;
20067;SDS011;10194;50.824;7.134;2024-01-30T07:30:50;55.70;;;48.30;;
20067;SDS011;10194;50.824;7.134;2024-01-30T07:33:16;55.33;;;48.07;;
20067;SDS011;10194;50.824;7.134;2024-01-30T07:35:43;57.30;;;48.60;;
20067;SDS011;10194;50.824;7.134;2024-01-30T07:38:10;55.80;;;48.10;;
20067;SDS011;10194;50.824;7.134;2024-01-30T07:40:36;56.03;;;47.87;;
20067;SDS011;10194;50.824;7.134;2024-01-30T07:43:02;55.77;;;47.83;;
20067;SDS011;10194;50.824;7.134;2024-01-30T07:45:28;57.67;;;48.97;;
20067;SDS011;10194;50.824;7.134;2024-01-30T07:47:57;56.23;;;48.60;;
20067;SDS011;10194;50.824;7.134;2024-01-30T07:50:24;54.47;;;47.87;;
20067;SDS011;10194;50.824;7.134;2024-01-30T07:52:50;54.60;;;48.13;;
20067;SDS011;10194;50.824;7.134;2024-01-30T07:55:19;55.93;;;49.27;;
20067;SDS011;10194;50.824;7.134;2024-01-30T07:57:49;54.10;;;47.97;;
20067;SDS011;10194;50.824;7.134;2024-01-30T08:00:18;57.13;;;50.30;;
20067;SDS011;10194;50.824;7.134;2024-01-30T08:02:46;54.03;;;47.83;;
20067;SDS011;10194;50.824;7.134;2024-01-30T08:05:12;56.63;;;49.47;;
20067;SDS011;10194;50.824;7.134;2024-01-30T08:07:40;67.20;;;55.13;;
20067;SDS011;10194;50.824;7.134;2024-01-30T08:10:11;54.87;;;48.30;;
20067;SDS011;10194;50.824;7.134;2024-01-30T08:12:38;55.53;;;48.63;;
20067;SDS011;10194;50.824;7.134;2024-01-30T08:15:04;56.23;;;49.17;;
20067;SDS011;10194;50.824;7.134;2024-01-30T08:17:30;55.77;;;49.07;;
20067;SDS011;10194;50.824;7.134;2024-01-30T08:19:56;55.60;;;48.77;;
20067;SDS011;10194;50.824;7.134;2024-01-30T08:22:22;55.13;;;48.50;;
20067;SDS011;10194;50.824;7.134;2024-01-30T08:24:48;57.47;;;49.20;;
20067;SDS011;10194;50.824;7.134;2024-01-30T08:27:14;54.67;;;47.63;;
20067;SDS011;10194;50.824;7.134;2024-01-30T08:29:40;57.43;;;48.93;;
20067;SDS011;10194;50.824;7.134;2024-01-30T08:32:06;57.53;;;50.73;;
20067;SDS011;10194;50.824;7.134;2024-01-30T08:34:32;55.83;;;48.53;;
20067;SDS011;10194;50.824;7.134;2024-01-30T08:36:58;56.00;;;49.90;;
20067;SDS011;10194;50.824;7.134;2024-01-30T08:39:23;54.90;;;47.63;;
20067;SDS011;10194;50.824;7.134;2024-01-30T08:41:49;55.40;;;47.67;;
20067;SDS011;10194;50.824;7.134;2024-01-30T08:44:15;54.10;;;47.10;;
20067;SDS011;10194;50.824;7.134;2024-01-30T08:46:42;54.57;;;47.60;;
20067;SDS011;10194;50.824;7.134;2024-01-30T08:49:10;56.70;;;48.40;;
20067;SDS011;10194;50.824;7.134;2024-01-30T08:51:38;55.67;;;47.57;;
20067;SDS011;10194;50.824;7.134;2024-01-30T08:54:04;54.47;;;47.30;;
20067;SDS011;10194;50.824;7.134;2024-01-30T08:56:30;54.97;;;47.33;;
20067;SDS011;10194;50.824;7.134;2024-01-30T08:58:56;54.70;;;47.20;;
20067;SDS011;10194;50.824;7.134;2024-01-30T09:01:22;55.27;;;47.47;;
20067;SDS011;10194;50.824;7.134;2024-01-30T09:03:48;55.20;;;47.67;;
20067;SDS011;10194;50.824;7.134;2024-01-30T09:06:13;55.60;;;47.47;;
20067;SDS011;10194;50.824;7.134;2024-01-30T09:08:39;54.87;;;47.10;;
20067;SDS011;10194;50.824;7.134;2024-01-30T09:11:11;55.07;;;47.07;;
20067;SDS011;10194;50.824;7.134;2024-01-30T09:13:38;55.40;;;47.37;;
20067;SDS011;10194;50.824;7.134;2024-01-30T09:16:04;55.67;;;47.57;;
20067;SDS011;10194;50.824;7.134;2024-01-30T09:18:31;55.90;;;47.57;;
20067;SDS011;10194;50.824;7.134;2024-01-30T09:20:57;55.80;;;47.47;;
20067;SDS011;10194;50.824;7.134;2024-01-30T09:23:23;55.67;;;47.70;;
20067;SDS011;10194;50.824;7.134;2024-01-30T09:25:49;56.70;;;50.30;;
20067;SDS011;10194;50.824;7.134;2024-01-30T09:28:16;55.27;;;47.20;;
20067;SDS011;10194;50.824;7.134;2024-01-30T09:30:42;57.73;;;48.43;;
20067;SDS011;10194;50.824;7.134;2024-01-30T09:33:08;55.50;;;47.30;;
20067;SDS011;10194;50.824;7.134;2024-01-30T09:35:35;55.53;;;47.27;;
20067;SDS011;10194;50.824;7.134;2024-01-30T09:38:01;55.83;;;47.37;;
20067;SDS011;10194;50.824;7.134;2024-01-30T09:40:27;55.57;;;47.40;;
20067;SDS011;10194;50.824;7.134;2024-01-30T09:42:53;55.83;;;47.53;;
20067;SDS011;10194;50.824;7.134;2024-01-30T09:45:20;56.07;;;47.70;;
20067;SDS011;10194;50.824;7.134;2024-01-30T09:47:50;57.20;;;48.83;;
20067;SDS011;10194;50.824;7.134;2024-01-30T09:50:17;57.97;;;48.63;;
20067;SDS011;10194;50.824;7.134;2024-01-30T09:52:44;57.00;;;48.37;;
20067;SDS011;10194;50.824;7.134;2024-01-30T09:55:15;57.07;;;48.20;;
20067;SDS011;10194;50.824;7.134;2024-01-30T09:57:42;58.00;;;48.80;;
20067;SDS011;10194;50.824;7.134;2024-01-30T10:00:07;56.07;;;47.90;;
20067;SDS011;10194;50.824;7.134;2024-01-30T10:02:38;56.40;;;48.07;;
20067;SDS011;10194;50.824;7.134;2024-01-30T10:05:04;57.13;;;48.60;;
20067;SDS011;10194;50.824;7.134;2024-01-30T10:07:30;56.73;;;48.27;;
20067;SDS011;10194;50.824;7.134;2024-01-30T10:09:56;57.47;;;48.83;;
20067;SDS011;10194;50.824;7.134;2024-01-30T10:12:22;58.37;;;48.90;;
20067;SDS011;10194;50.824;7.134;2024-01-30T10:14:51;60.53;;;50.33;;
20067;SDS011;10194;50.824;7.134;2024-01-30T10:17:16;56.97;;;48.27;;
20067;SDS011;10194;50.824;7.134;2024-01-30T10:19:42;56.37;;;47.90;;
20067;SDS011;10194;50.824;7.134;2024-01-30T10:22:09;57.13;;;48.40;;
20067;SDS011;10194;50.824;7.134;2024-01-30T10:24:35;58.90;;;49.30;;
20067;SDS011;10194;50.824;7.134;2024-01-30T10:27:02;58.30;;;49.03;;
20067;SDS011;10194;50.824;7.134;2024-01-30T10:29:28;57.77;;;48.93;;
20067;SDS011;10194;50.824;7.134;2024-01-30T10:32:04;57.23;;;48.40;;
20067;SDS011;10194;50.824;7.134;2024-01-30T10:34:31;58.93;;;49.23;;
20067;SDS011;10194;50.824;7.134;2024-01-30T10:37:08;58.90;;;50.60;;
20067;SDS011;10194;50.824;7.134;2024-01-30T10:39:38;58.63;;;50.10;;
20067;SDS011;10194;50.824;7.134;2024-01-30T10:42:05;57.87;;;49.10;;
20067;SDS011;10194;50.824;7.134;2024-01-30T10:47:34;57.80;;;48.97;;
20067;SDS011;10194;50.824;7.134;2024-01-30T10:50:03;58.10;;;49.20;;
20067;SDS011;10194;50.824;7.134;2024-01-30T10:52:31;58.57;;;49.33;;
20067;SDS011;10194;50.824;7.134;2024-01-30T10:54:58;57.87;;;48.97;;
20067;SDS011;10194;50.824;7.134;2024-01-30T10:57:25;58.67;;;49.30;;
20067;SDS011;10194;50.824;7.134;2024-01-30T10:59:56;59.13;;;49.70;;
20067;SDS011;10194;50.824;7.134;2024-01-30T11:02:24;57.97;;;49.00;;
20067;SDS011;10194;50.824;7.134;2024-01-30T11:04:54;60.00;;;49.97;;
20067;SDS011;10194;50.824;7.134;2024-01-30T11:07:25;57.93;;;48.83;;
20067;SDS011;10194;50.824;7.134;2024-01-30T11:12:23;58.97;;;49.53;;
20067;SDS011;10194;50.824;7.134;2024-01-30T11:15:04;64.07;;;52.00;;
20067;SDS011;10194;50.824;7.134;2024-01-30T11:20:20;59.77;;;49.90;;
20067;SDS011;10194;50.824;7.134;2024-01-30T11:22:53;59.33;;;49.73;;
20067;SDS011;10194;50.824;7.134;2024-01-30T11:25:21;59.50;;;50.10;;
20067;SDS011;10194;50.824;7.134;2024-01-30T11:27:50;59.83;;;50.00;;
20067;SDS011;10194;50.824;7.134;2024-01-30T11:30:24;59.77;;;50.20;;
20067;SDS011;10194;50.824;7.134;2024-01-30T11:33:03;59.07;;;49.80;;
20067;SDS011;10194;50.824;7.134;2024-01-30T11:35:32;59.63;;;50.13;;
20067;SDS011;10194;50.824;7.134;2024-01-30T11:37:59;60.40;;;51.17;;
20067;SDS011;10194;50.824;7.134;2024-01-30T11:40:28;60.47;;;51.53;;
20067;SDS011;10194;50.824;7.134;2024-01-30T11:42:56;61.23;;;51.20;;
20067;SDS011;10194;50.824;7.134;2024-01-30T11:45:23;59.90;;;50.40;;
20067;SDS011;10194;50.824;7.134;2024-01-30T11:47:49;61.77;;;51.23;;
20067;SDS011;10194;50.824;7.134;2024-01-30T11:50:15;63.30;;;51.77;;
20067;SDS011;10194;50.824;7.134;2024-01-30T11:52:41;60.47;;;50.77;;
20067;SDS011;10194;50.824;7.134;2024-01-30T11:55:08;65.40;;;52.67;;
20067;SDS011;10194;50.824;7.134;2024-01-30T11:57:35;65.87;;;53.00;;
20067;SDS011;10194;50.824;7.134;2024-01-30T12:00:05;62.57;;;51.73;;
20067;SDS011;10194;50.824;7.134;2024-01-30T12:02:35;60.63;;;50.93;;
20067;SDS011;10194;50.824;7.134;2024-01-30T12:05:05;62.13;;;51.63;;
20067;SDS011;10194;50.824;7.134;2024-01-30T12:07:32;71.80;;;56.37;;
20067;SDS011;10194;50.824;7.134;2024-01-30T12:09:58;65.80;;;53.17;;
20067;SDS011;10194;50.824;7.134;2024-01-30T12:12:25;64.87;;;52.60;;
20067;SDS011;10194;50.824;7.134;2024-01-30T12:14:52;68.40;;;54.37;;
20067;SDS011;10194;50.824;7.134;2024-01-30T12:20:06;64.83;;;52.77;;
20067;SDS011;10194;50.824;7.134;2024-01-30T12:22:42;68.70;;;54.03;;
20067;SDS011;10194;50.824;7.134;2024-01-30T12:27:37;61.03;;;51.40;;
20067;SDS011;10194;50.824;7.134;2024-01-30T12:30:05;66.57;;;53.47;;
20067;SDS011;10194;50.824;7.134;2024-01-30T12:32:34;65.27;;;52.90;;
20067;SDS011;10194;50.824;7.134;2024-01-30T12:35:01;67.20;;;53.63;;
20067;SDS011;10194;50.824;7.134;2024-01-30T12:37:28;61.30;;;51.33;;
20067;SDS011;10194;50.824;7.134;2024-01-30T12:39:55;65.03;;;52.97;;
20067;SDS011;10194;50.824;7.134;2024-01-30T12:42:21;61.43;;;51.30;;
20067;SDS011;10194;50.824;7.134;2024-01-30T12:44:48;63.40;;;52.53;;
20067;SDS011;10194;50.824;7.134;2024-01-30T12:47:14;65.50;;;53.00;;
20067;SDS011;10194;50.824;7.134;2024-01-30T12:49:43;60.97;;;51.17;;
20067;SDS011;10194;50.824;7.134;2024-01-30T12:52:10;66.13;;;53.27;;
20067;SDS011;10194;50.824;7.134;2024-01-30T12:54:37;65.30;;;52.83;;
20067;SDS011;10194;50.824;7.134;2024-01-30T12:57:03;66.93;;;53.53;;
20067;SDS011;10194;50.824;7.134;2024-01-30T12:59:30;66.90;;;53.63;;
20067;SDS011;10194;50.824;7.134;2024-01-30T13:01:56;66.27;;;53.00;;
20067;SDS011;10194;50.824;7.134;2024-01-30T13:04:25;61.83;;;51.43;;
20067;SDS011;10194;50.824;7.134;2024-01-30T13:06:52;66.27;;;53.30;;
20067;SDS011;10194;50.824;7.134;2024-01-30T13:09:18;66.03;;;53.17;;
20067;SDS011;10194;50.824;7.134;2024-01-30T13:11:44;69.00;;;54.57;;
20067;SDS011;10194;50.824;7.134;2024-01-30T13:14:10;66.13;;;53.13;;
20067;SDS011;10194;50.824;7.134;2024-01-30T13:16:36;62.67;;;51.77;;
20067;SDS011;10194;50.824;7.134;2024-01-30T13:19:02;65.47;;;52.93;;
20067;SDS011;10194;50.824;7.134;2024-01-30T13:21:29;68.30;;;54.03;;
20067;SDS011;10194;50.824;7.134;2024-01-30T13:23:54;67.60;;;54.00;;
20067;SDS011;10194;50.824;7.134;2024-01-30T13:26:21;61.37;;;51.47;;
20067;SDS011;10194;50.824;7.134;2024-01-30T13:28:47;61.43;;;51.53;;
20067;SDS011;10194;50.824;7.134;2024-01-30T13:31:13;61.33;;;51.33;;
20067;SDS011;10194;50.824;7.134;2024-01-30T13:33:40;62.70;;;52.20;;
20067;SDS011;10194;50.824;7.134;2024-01-30T13:36:09;65.00;;;53.03;;
20067;SDS011;10194;50.824;7.134;2024-01-30T13:38:36;66.97;;;53.93;;
20067;SDS011;10194;50.824;7.134;2024-01-30T13:41:09;65.83;;;53.70;;
20067;SDS011;10194;50.824;7.134;2024-01-30T13:43:35;65.07;;;53.50;;
20067;SDS011;10194;50.824;7.134;2024-01-30T13:46:00;63.00;;;52.33;;
20067;SDS011;10194;50.824;7.134;2024-01-30T13:48:26;61.53;;;51.60;;
20067;SDS011;10194;50.824;7.134;2024-01-30T13:50:52;67.00;;;53.90;;
20067;SDS011;10194;50.824;7.134;2024-01-30T13:53:19;69.37;;;55.07;;
20067;SDS011;10194;50.824;7.134;2024-01-30T13:55:44;67.90;;;54.30;;
20067;SDS011;10194;50.824;7.134;2024-01-30T13:58:10;65.37;;;53.40;;
20067;SDS011;10194;50.824;7.134;2024-01-30T14:00:36;66.40;;;53.70;;
20067;SDS011;10194;50.824;7.134;2024-01-30T14:03:02;67.70;;;54.33;;
20067;SDS011;10194;50.824;7.134;2024-01-30T14:05:28;68.20;;;54.43;;
20067;SDS011;10194;50.824;7.134;2024-01-30T14:07:54;68.60;;;54.57;;
20067;SDS011;10194;50.824;7.134;2024-01-30T14:10:20;68.97;;;54.73;;
20067;SDS011;10194;50.824;7.134;2024-01-30T14:12:46;68.13;;;54.60;;
20067;SDS011;10194;50.824;7.134;2024-01-30T14:15:15;68.57;;;54.80;;
20067;SDS011;10194;50.824;7.134;2024-01-30T14:17:43;61.93;;;51.80;;
20067;SDS011;10194;50.824;7.134;2024-01-30T14:20:14;67.87;;;54.27;;
20067;SDS011;10194;50.824;7.134;2024-01-30T14:22:43;66.97;;;53.83;;
20067;SDS011;10194;50.824;7.134;2024-01-30T14:25:09;69.57;;;55.20;;
20067;SDS011;10194;50.824;7.134;2024-01-30T14:27:35;62.17;;;51.97;;
20067;SDS011;10194;50.824;7.134;2024-01-30T14:30:02;64.47;;;53.07;;
20067;SDS011;10194;50.824;7.134;2024-01-30T14:32:28;61.93;;;52.00;;